TimeEDT,TemperatureF,Dew PointF,Humidity,Sea Level PressureIn,VisibilityMPH,Wind Direction,Wind SpeedMPH,Gust SpeedMPH,PrecipitationIn,Events,Conditions,WindDirDegrees,DateUTC
12:53 AM,73.0,70.0,90,30.12,10.0,NE,5.8,-,N/A,,Mostly Cloudy,40,2012-10-05 04:53:00
1:53 AM,73.0,70.0,90,30.11,10.0,Calm,Calm,-,N/A,,Mostly Cloudy,0,2012-10-05 05:53:00
2:53 AM,73.0,70.0,90,30.10,10.0,Calm,Calm,-,N/A,,Mostly Cloudy,0,2012-10-05 06:53:00
3:53 AM,73.0,70.0,90,30.08,10.0,ENE,4.6,-,N/A,,Scattered Clouds,70,2012-10-05 07:53:00
4:53 AM,73.0,70.0,90,30.08,10.0,NE,5.8,-,N/A,,Scattered Clouds,40,2012-10-05 08:53:00
5:53 AM,73.0,70.0,90,30.08,10.0,ENE,4.6,-,N/A,,Scattered Clouds,70,2012-10-05 09:53:00
6:53 AM,73.0,71.1,93,30.09,10.0,Variable,4.6,-,N/A,,Partly Cloudy,0,2012-10-05 10:53:00
7:53 AM,73.0,71.1,93,30.09,8.0,Variable,3.5,-,N/A,,Scattered Clouds,0,2012-10-05 11:53:00
8:53 AM,75.9,72.0,87,30.09,10.0,NNE,4.6,-,N/A,,Scattered Clouds,20,2012-10-05 12:53:00
9:53 AM,79.0,73.0,82,30.09,10.0,Variable,4.6,-,N/A,,Scattered Clouds,0,2012-10-05 13:53:00
10:53 AM,82.9,73.9,74,30.09,9.0,Calm,Calm,-,N/A,,Scattered Clouds,0,2012-10-05 14:53:00
11:53 AM,86.0,73.9,67,30.08,10.0,SSE,5.8,-,N/A,,Scattered Clouds,160,2012-10-05 15:53:00
12:53 PM,86.0,75.0,70,30.07,10.0,WSW,8.1,-,N/A,,Mostly Cloudy,250,2012-10-05 16:53:00
1:53 PM,86.0,75.0,70,30.04,10.0,WSW,6.9,-,N/A,,Mostly Cloudy,250,2012-10-05 17:53:00
2:53 PM,86.0,72.0,63,30.01,10.0,WSW,6.9,-,N/A,,Mostly Cloudy,250,2012-10-05 18:53:00
3:53 PM,88.0,71.1,57,29.98,10.0,WNW,6.9,-,N/A,,Mostly Cloudy,290,2012-10-05 19:53:00
4:53 PM,84.9,75.0,72,29.97,10.0,NW,8.1,-,N/A,,Mostly Cloudy,320,2012-10-05 20:53:00
5:53 PM,84.9,75.0,72,29.96,10.0,WNW,9.2,-,N/A,,Overcast,300,2012-10-05 21:53:00
6:53 PM,82.9,73.9,74,29.99,10.0,NNW,8.1,-,N/A,,Overcast,330,2012-10-05 22:53:00
7:25 PM,80.6,71.6,74,30.01,10.0,NE,12.7,17.3,N/A,,Overcast,40,2012-10-05 23:25:00
7:49 PM,78.8,71.6,78,30.03,10.0,ENE,9.2,18.4,0.00,Rain-Thunderstorm,Light Thunderstorms and Rain,60,2012-10-05 23:49:00
7:53 PM,79.0,71.1,77,30.03,10.0,ENE,9.2,18.4,0.00,Rain-Thunderstorm,Light Thunderstorms and Rain,70,2012-10-05 23:53:00
8:12 PM,77.0,71.6,83,30.03,8.0,East,8.1,-,0.00,Rain-Thunderstorm,Light Thunderstorms and Rain,80,2012-10-06 00:12:00
8:38 PM,75.2,71.6,89,30.03,10.0,Variable,4.6,-,0.01,,Mostly Cloudy,0,2012-10-06 00:38:00
8:53 PM,75.9,72.0,87,30.03,10.0,NNE,3.5,-,0.01,,Mostly Cloudy,20,2012-10-06 00:53:00
9:53 PM,75.0,71.1,87,30.03,10.0,Calm,Calm,-,N/A,,Mostly Cloudy,0,2012-10-06 01:53:00
10:53 PM,75.9,71.1,85,30.03,10.0,Calm,Calm,-,0.00,,Overcast,0,2012-10-06 02:53:00
11:53 PM,75.0,72.0,90,30.01,10.0,SE,4.6,-,N/A,,Mostly Cloudy,140,2012-10-06 03:53:00